createdAt,value
2022-11-26T00:01:25.450Z,100545.19
2022-11-26T00:03:57.180Z,100565.75
2022-11-26T00:06:50.398Z,100569.63
2022-11-26T00:09:25.236Z,100572.06
2022-11-26T00:11:52.296Z,100572.63
2022-11-26T00:14:19.465Z,100567.31
2022-11-26T00:16:46.762Z,100560.59
2022-11-26T00:19:15.150Z,100579.44
2022-11-26T00:21:42.896Z,100570.59
2022-11-26T00:24:30.549Z,100583.38
2022-11-26T00:27:00.130Z,100574.47
2022-11-26T00:29:27.497Z,100576.13
2022-11-26T00:31:54.633Z,100568.91
2022-11-26T00:34:21.923Z,100566.19
2022-11-26T00:36:49.296Z,100589.47
2022-11-26T00:39:21.517Z,100575.28
2022-11-26T00:41:51.112Z,100568.38
2022-11-26T00:44:22.403Z,100571.97
2022-11-26T00:46:50.344Z,100569.72
2022-11-26T00:49:18.603Z,100570.25
2022-11-26T00:51:46.373Z,100570.47
2022-11-26T00:54:17.420Z,100569.13
2022-11-26T00:56:45.788Z,100563.34
2022-11-26T00:59:17.052Z,100577.78
2022-11-26T01:01:44.304Z,100568.84
2022-11-26T01:04:11.830Z,100562.22
2022-11-26T01:06:46.615Z,100563.16
2022-11-26T01:09:18.884Z,100576.66
2022-11-26T01:11:50.936Z,100585.00
2022-11-26T01:14:22.306Z,100575.63
2022-11-26T01:16:50.890Z,100584.75
2022-11-26T01:19:18.160Z,100580.53
2022-11-26T01:21:45.297Z,100578.59
2022-11-26T01:24:13.277Z,100602.16
2022-11-26T01:26:43.330Z,100572.31
2022-11-26T01:29:16.944Z,100583.06
2022-11-26T01:31:44.802Z,100571.97
2022-11-26T01:34:12.147Z,100579.97
2022-11-26T01:36:43.364Z,100593.50
2022-11-26T01:39:10.475Z,100580.19
2022-11-26T01:41:43.137Z,100591.53
2022-11-26T01:44:18.101Z,100591.53
2022-11-26T01:46:46.309Z,100591.75
2022-11-26T01:49:21.603Z,100585.09
2022-11-26T01:51:58.025Z,100595.88
2022-11-26T01:54:25.225Z,100600.88
2022-11-26T01:56:56.255Z,100595.00
2022-11-26T01:59:28.713Z,100593.44
2022-11-26T02:01:58.790Z,100579.56
2022-11-26T02:04:36.312Z,100601.34
2022-11-26T02:07:04.401Z,100582.19
2022-11-26T02:09:32.088Z,100591.09
2022-11-26T02:11:59.788Z,100595.31
2022-11-26T02:14:36.351Z,100575.34
2022-11-26T02:17:11.191Z,100589.31
2022-11-26T02:20:03.140Z,100592.59
2022-11-26T02:22:51.435Z,100587.88
2022-11-26T02:25:56.444Z,100588.13
2022-11-26T02:29:00.152Z,100600.13
2022-11-26T02:31:42.373Z,100600.88
2022-11-26T02:34:15.800Z,100616.13
2022-11-26T02:36:51.454Z,100618.28
2022-11-26T02:39:24.733Z,100602.22
2022-11-26T02:41:54.774Z,100606.31
2022-11-26T02:44:26.760Z,100622.94
2022-11-26T02:47:06.796Z,100607.53
2022-11-26T02:49:35.467Z,100593.63
2022-11-26T02:52:05.052Z,100609.19
2022-11-26T02:54:34.435Z,100613.28
2022-11-26T02:57:06.071Z,100624.13
2022-11-26T02:59:34.387Z,100613.53
2022-11-26T03:02:05.251Z,100592.72
2022-11-26T03:04:38.996Z,100616.75
2022-11-26T03:07:09.276Z,100627.91
2022-11-26T03:09:41.405Z,100623.75
2022-11-26T03:12:09.033Z,100629.59
2022-11-26T03:14:36.353Z,100643.00
2022-11-26T03:17:03.793Z,100632.69
2022-11-26T03:19:30.961Z,100645.19
2022-11-26T03:21:58.026Z,100637.09
2022-11-26T03:24:25.200Z,100641.28
2022-11-26T03:26:52.286Z,100631.00
2022-11-26T03:29:19.322Z,100635.06
2022-11-26T03:31:46.723Z,100639.78
2022-11-26T03:34:13.870Z,100634.81
2022-11-26T03:36:41.077Z,100638.69
2022-11-26T03:39:08.268Z,100622.59
2022-11-26T03:41:35.578Z,100650.09
2022-11-26T03:44:02.966Z,100639.00
2022-11-26T03:46:30.353Z,100648.34
2022-11-26T03:48:57.407Z,100642.75
2022-11-26T03:51:24.479Z,100645.78
2022-11-26T03:53:51.838Z,100650.50
2022-11-26T03:56:19.059Z,100637.13
2022-11-26T03:58:46.485Z,100642.19
2022-11-26T04:01:14.063Z,100654.56
2022-11-26T04:03:41.669Z,100654.00
2022-11-26T04:06:08.828Z,100643.50
2022-11-26T04:08:35.942Z,100642.75
2022-11-26T04:11:03.104Z,100647.16
2022-11-26T04:13:30.544Z,100672.91
2022-11-26T04:15:57.575Z,100647.47
2022-11-26T04:18:24.836Z,100640.94
2022-11-26T04:20:53.421Z,100656.44
2022-11-26T04:23:27.128Z,100662.25
2022-11-26T04:25:54.277Z,100661.97
2022-11-26T04:28:21.624Z,100666.97
2022-11-26T04:30:48.782Z,100663.88
2022-11-26T04:33:16.051Z,100685.75
2022-11-26T04:35:43.363Z,100679.78
2022-11-26T04:38:10.622Z,100682.59
2022-11-26T04:40:38.585Z,100692.84
2022-11-26T04:43:05.629Z,100690.56
2022-11-26T04:45:32.991Z,100668.03
2022-11-26T04:48:00.088Z,100699.22
2022-11-26T04:50:27.193Z,100676.50
2022-11-26T04:52:54.706Z,100695.63
2022-11-26T04:55:21.887Z,100704.06
2022-11-26T04:57:49.250Z,100693.50
2022-11-26T05:00:18.604Z,100724.72
2022-11-26T05:02:46.144Z,100704.25
2022-11-26T05:05:13.774Z,100701.81
2022-11-26T05:07:41.088Z,100676.72
2022-11-26T05:10:11.709Z,100707.91
2022-11-26T05:12:38.766Z,100700.47
2022-11-26T05:15:06.417Z,100709.91
2022-11-26T05:17:33.765Z,100705.41
2022-11-26T05:20:00.857Z,100716.75
2022-11-26T05:22:28.234Z,100712.75
2022-11-26T05:24:55.469Z,100717.06
2022-11-26T05:27:22.602Z,100721.25
2022-11-26T05:29:49.926Z,100721.81
2022-11-26T05:32:17.253Z,100707.03
2022-11-26T05:34:44.592Z,100725.66
2022-11-26T05:37:11.711Z,100717.84
2022-11-26T05:39:38.822Z,100709.06
2022-11-26T05:42:09.404Z,100736.28
2022-11-26T05:44:38.044Z,100730.53
2022-11-26T05:47:05.587Z,100752.50
2022-11-26T05:49:33.324Z,100737.44
2022-11-26T05:52:00.776Z,100736.81
2022-11-26T05:54:27.807Z,100739.00
2022-11-26T05:56:59.953Z,100736.03
2022-11-26T05:59:36.305Z,100755.19
2022-11-26T06:02:04.065Z,100741.72
2022-11-26T06:04:31.183Z,100743.28
2022-11-26T06:06:58.791Z,100774.47
2022-11-26T06:09:25.905Z,100753.75
2022-11-26T06:11:53.929Z,100761.19
2022-11-26T06:14:21.300Z,100755.47
2022-11-26T06:16:48.511Z,100763.84
2022-11-26T06:19:15.805Z,100759.00
2022-11-26T06:21:43.653Z,100770.53
2022-11-26T06:24:11.493Z,100779.41
2022-11-26T06:26:38.605Z,100782.91
2022-11-26T06:29:05.788Z,100763.25
2022-11-26T06:31:33.894Z,100790.69
2022-11-26T06:34:01.566Z,100780.88
2022-11-26T06:36:28.762Z,100775.16
2022-11-26T06:38:56.069Z,100781.66
2022-11-26T06:41:23.312Z,100787.72
2022-11-26T06:43:50.700Z,100767.00
2022-11-26T06:46:18.053Z,100790.13
2022-11-26T06:48:45.616Z,100801.75
2022-11-26T06:51:15.172Z,100801.25
2022-11-26T06:53:42.734Z,100782.44
2022-11-26T06:56:18.368Z,100802.78
2022-11-26T06:58:50.286Z,100789.81
2022-11-26T07:01:26.343Z,100795.97
2022-11-26T07:03:54.821Z,100797.94
2022-11-26T07:06:28.214Z,100789.34
2022-11-26T07:08:57.280Z,100786.84
2022-11-26T07:11:25.845Z,100779.84
2022-11-26T07:13:53.000Z,100787.69
2022-11-26T07:16:20.966Z,100791.88
2022-11-26T07:18:52.881Z,100804.81
2022-11-26T07:21:24.012Z,100795.75
2022-11-26T07:23:51.883Z,100808.50
2022-11-26T07:26:21.300Z,100801.81
2022-11-26T07:28:49.241Z,100824.69
2022-11-26T07:31:19.590Z,100817.13
2022-11-26T07:33:47.701Z,100805.16
2022-11-26T07:36:18.787Z,100805.81
2022-11-26T07:38:46.847Z,100811.22
2022-11-26T07:41:18.365Z,100820.47
2022-11-26T07:43:47.421Z,100813.16
2022-11-26T07:46:17.489Z,100823.19
2022-11-26T07:48:45.237Z,100795.31
2022-11-26T07:51:41.971Z,100819.91
2022-11-26T07:54:09.568Z,100817.66
2022-11-26T07:56:36.868Z,100830.53
2022-11-26T07:59:04.006Z,100817.78
2022-11-26T08:01:33.112Z,100812.38
2022-11-26T08:04:04.254Z,100801.47
2022-11-26T08:06:31.633Z,100779.28
2022-11-26T08:09:01.092Z,100814.00
2022-11-26T08:11:30.596Z,100811.03
2022-11-26T08:14:10.530Z,100800.16
2022-11-26T08:16:37.925Z,100806.06
2022-11-26T08:19:08.925Z,100828.09
2022-11-26T08:21:36.264Z,100797.03
2022-11-26T08:24:03.891Z,100804.34
2022-11-26T08:26:37.070Z,100796.72
2022-11-26T08:29:06.425Z,100787.88
2022-11-26T08:31:35.090Z,100800.31
2022-11-26T08:34:04.128Z,100787.78
2022-11-26T08:36:32.024Z,100829.03
2022-11-26T08:39:01.646Z,100789.13
2022-11-26T08:41:29.517Z,100779.53
2022-11-26T08:44:11.934Z,100766.75
2022-11-26T08:46:41.393Z,100786.16
2022-11-26T08:49:12.378Z,100782.25
2022-11-26T08:51:39.632Z,100770.03
2022-11-26T08:54:07.385Z,100788.88
2022-11-26T08:56:35.012Z,100782.31
2022-11-26T08:59:05.134Z,100788.34
2022-11-26T09:01:34.165Z,100781.69
2022-11-26T09:04:02.925Z,100793.88
2022-11-26T09:06:32.959Z,100785.28
2022-11-26T09:09:13.768Z,100776.59
2022-11-26T09:11:45.633Z,100775.59
2022-11-26T09:14:14.107Z,100776.31
2022-11-26T09:16:41.889Z,100785.50
2022-11-26T09:19:16.485Z,100770.47
2022-11-26T09:21:44.740Z,100785.56
2022-11-26T09:24:12.558Z,100773.66
2022-11-26T09:26:40.932Z,100789.19
2022-11-26T09:29:08.305Z,100788.94
2022-11-26T09:31:35.528Z,100778.34
2022-11-26T09:34:03.341Z,100790.34
2022-11-26T09:36:30.688Z,100769.13
2022-11-26T09:39:00.251Z,100792.94
2022-11-26T09:42:06.036Z,100788.09
2022-11-26T09:45:01.119Z,100786.00
2022-11-26T09:47:38.732Z,100785.69
2022-11-26T09:50:11.905Z,100792.69
2022-11-26T09:53:13.458Z,100809.16
2022-11-26T09:55:51.992Z,100797.31
2022-11-26T09:58:39.608Z,100796.03
2022-11-26T10:01:07.579Z,100759.34
2022-11-26T10:03:37.786Z,100788.50
2022-11-26T10:06:30.347Z,100801.41
2022-11-26T10:09:10.995Z,100814.22
2022-11-26T10:11:38.229Z,100805.03
2022-11-26T10:14:31.102Z,100810.19
2022-11-26T10:17:16.544Z,100834.72
2022-11-26T10:20:05.171Z,100820.28
2022-11-26T10:22:40.590Z,100801.03
2022-11-26T10:25:20.007Z,100810.69
2022-11-26T10:27:49.820Z,100817.34
2022-11-26T10:30:27.011Z,100801.69
2022-11-26T10:32:57.109Z,100827.06
2022-11-26T10:35:29.072Z,100823.44
2022-11-26T10:37:59.807Z,100833.69
2022-11-26T10:40:32.450Z,100819.22
2022-11-26T10:43:08.794Z,100811.47
2022-11-26T10:45:54.651Z,100808.31
2022-11-26T10:48:31.100Z,100813.34
2022-11-26T10:51:00.366Z,100830.47
2022-11-26T10:53:30.279Z,100826.63
2022-11-26T10:56:03.870Z,100820.81
2022-11-26T10:58:38.604Z,100817.31
2022-11-26T11:01:07.444Z,100814.91
2022-11-26T11:04:07.339Z,100825.34
2022-11-26T11:06:44.297Z,100827.09
2022-11-26T11:09:26.232Z,100830.41
2022-11-26T11:12:11.781Z,100835.44
2022-11-26T11:14:43.068Z,100833.50
2022-11-26T11:17:37.091Z,100840.88
2022-11-26T11:20:31.296Z,100826.66
2022-11-26T11:23:18.140Z,100834.31
2022-11-26T11:25:57.361Z,100839.31
2022-11-26T11:28:27.226Z,100839.88
2022-11-26T11:31:04.949Z,100855.00
2022-11-26T11:33:32.802Z,100834.63
2022-11-26T11:36:14.620Z,100833.19
2022-11-26T11:38:51.076Z,100848.25
2022-11-26T11:41:35.718Z,100844.75
2022-11-26T11:44:25.930Z,100854.47
2022-11-26T11:47:13.087Z,100855.97
2022-11-26T11:49:40.145Z,100854.16
2022-11-26T11:52:29.480Z,100858.59
2022-11-26T11:55:05.566Z,100870.69
2022-11-26T11:58:17.417Z,100862.44
2022-11-26T12:01:20.253Z,100862.91
2022-11-26T12:04:02.547Z,100858.16
2022-11-26T12:06:49.436Z,100862.59
2022-11-26T12:09:51.712Z,100861.94
2022-11-26T12:12:30.129Z,100856.00
2022-11-26T12:15:07.683Z,100880.28
2022-11-26T12:17:50.091Z,100872.44
2022-11-26T12:20:20.545Z,100878.25
2022-11-26T12:23:33.402Z,100877.50
2022-11-26T12:26:19.825Z,100885.72
2022-11-26T12:29:00.963Z,100882.84
2022-11-26T12:31:54.393Z,100874.44
2022-11-26T12:34:34.074Z,100878.00
2022-11-26T12:37:13.250Z,100883.59
2022-11-26T12:39:53.858Z,100887.19
2022-11-26T12:42:42.272Z,100889.97
2022-11-26T12:45:28.068Z,100894.75
2022-11-26T12:48:03.462Z,100897.16
2022-11-26T12:50:46.496Z,100903.31
2022-11-26T12:53:39.308Z,100900.22
2022-11-26T12:56:19.424Z,100888.88
2022-11-26T12:59:01.025Z,100894.41
2022-11-26T13:01:29.317Z,100898.91
2022-11-26T13:04:21.641Z,100908.22
2022-11-26T13:07:01.665Z,100911.56
2022-11-26T13:09:59.318Z,100901.56
2022-11-26T13:12:42.667Z,100915.88
2022-11-26T13:15:24.988Z,100914.19
2022-11-26T13:17:54.051Z,100912.41
2022-11-26T13:20:33.525Z,100920.44
2022-11-26T13:23:28.802Z,100924.97
2022-11-26T13:26:33.710Z,100923.31
2022-11-26T13:29:30.093Z,100927.56
2022-11-26T13:32:15.498Z,100930.22
2022-11-26T13:34:58.824Z,100928.91
2022-11-26T13:37:45.306Z,100920.56
2022-11-26T13:40:31.294Z,100926.00
2022-11-26T13:43:26.276Z,100914.91
2022-11-26T13:45:59.640Z,100932.56
2022-11-26T13:48:51.985Z,100930.91
2022-11-26T13:51:31.184Z,100935.50
2022-11-26T13:54:11.829Z,100937.41
2022-11-26T13:56:41.169Z,100940.44
2022-11-26T13:59:25.521Z,100939.03
2022-11-26T14:01:56.241Z,100942.00
2022-11-26T14:04:26.726Z,100937.06
2022-11-26T14:07:05.978Z,100945.72
2022-11-26T14:09:42.290Z,100948.97
2022-11-26T14:12:13.809Z,100939.28
2022-11-26T14:14:42.011Z,100949.25
2022-11-26T14:17:09.304Z,100953.44
2022-11-26T14:19:42.666Z,100962.84
2022-11-26T14:22:22.166Z,100951.31
2022-11-26T14:24:49.577Z,100945.53
2022-11-26T14:27:41.543Z,100955.34
2022-11-26T14:30:08.921Z,100949.81
2022-11-26T14:32:46.032Z,100945.94
2022-11-26T14:35:30.730Z,100954.06
2022-11-26T14:38:03.786Z,100960.63
2022-11-26T14:40:38.592Z,100945.69
2022-11-26T14:43:24.403Z,100960.06
2022-11-26T14:46:04.658Z,100960.47
2022-11-26T14:48:35.492Z,100946.50
2022-11-26T14:51:04.874Z,100955.06
2022-11-26T14:53:34.487Z,100964.09
2022-11-26T14:56:03.752Z,100934.81
2022-11-26T14:58:41.809Z,100938.53
2022-11-26T15:01:15.526Z,100962.47
2022-11-26T15:03:43.142Z,100956.69
2022-11-26T15:06:43.247Z,100950.44
2022-11-26T15:09:15.586Z,100965.88
2022-11-26T15:11:51.169Z,100962.75
2022-11-26T15:14:26.736Z,100952.84
2022-11-26T15:16:59.339Z,100924.38
2022-11-26T15:19:30.540Z,100941.38
2022-11-26T15:21:58.263Z,100926.28
2022-11-26T15:24:25.469Z,100950.34
2022-11-26T15:26:52.753Z,100953.09
2022-11-26T15:29:37.718Z,100959.81
2022-11-26T15:32:05.655Z,100958.47
2022-11-26T15:34:33.601Z,100972.13
2022-11-26T15:37:00.885Z,100959.50
2022-11-26T15:39:31.984Z,100971.56
2022-11-26T15:42:05.063Z,100965.69
2022-11-26T15:44:42.067Z,100968.28
2022-11-26T15:47:20.284Z,100974.19
2022-11-26T15:49:52.941Z,100975.22
2022-11-26T15:52:27.708Z,100978.44
2022-11-26T15:55:12.930Z,100972.63
2022-11-26T15:57:42.906Z,100975.13
2022-11-26T16:00:44.010Z,100981.19
2022-11-26T16:03:44.078Z,100985.31
2022-11-26T16:06:38.058Z,100975.78
2022-11-26T16:09:17.625Z,100986.78
2022-11-26T16:11:58.320Z,100978.16
2022-11-26T16:14:38.391Z,100980.53
2022-11-26T16:17:11.675Z,100995.63
2022-11-26T16:19:48.587Z,100991.00
2022-11-26T16:22:18.539Z,100993.63
2022-11-26T16:24:45.897Z,100980.94
2022-11-26T16:27:20.888Z,100988.59
2022-11-26T16:29:48.088Z,100988.59
2022-11-26T16:32:17.164Z,100975.34
2022-11-26T16:34:44.858Z,100979.72
2022-11-26T16:37:31.979Z,100993.81
2022-11-26T16:40:14.826Z,100983.72
2022-11-26T16:42:42.052Z,100976.41
2022-11-26T16:45:12.028Z,100986.94
2022-11-26T16:47:50.086Z,100985.50
2022-11-26T16:50:23.165Z,100980.38
2022-11-26T16:52:50.390Z,100970.13
2022-11-26T16:55:22.136Z,100976.69
2022-11-26T16:57:59.925Z,100981.84
2022-11-26T17:00:27.890Z,100977.47
2022-11-26T17:02:55.078Z,100984.47
2022-11-26T17:05:23.200Z,100979.72
2022-11-26T17:07:57.471Z,100948.31
2022-11-26T17:10:29.481Z,100978.41
2022-11-26T17:12:57.868Z,100990.50
2022-11-26T17:15:25.073Z,100977.25
2022-11-26T17:17:54.361Z,100985.63
2022-11-26T17:20:25.725Z,100980.03
2022-11-26T17:22:54.363Z,100967.50
2022-11-26T17:25:21.714Z,100977.84
2022-11-26T17:27:49.617Z,100981.03
2022-11-26T17:30:23.038Z,100978.50
2022-11-26T17:32:51.498Z,100979.59
2022-11-26T17:35:19.298Z,100972.38
2022-11-26T17:37:46.984Z,100977.06
2022-11-26T17:40:19.763Z,100978.50
2022-11-26T17:42:47.567Z,100969.94
2022-11-26T17:45:16.654Z,100974.06
2022-11-26T17:47:45.365Z,100980.19
2022-11-26T17:50:24.889Z,100975.28
2022-11-26T17:52:53.322Z,100984.41
2022-11-26T17:55:23.154Z,100985.72
2022-11-26T17:57:51.143Z,100971.88
2022-11-26T18:00:23.132Z,100975.66
2022-11-26T18:02:51.457Z,100979.44
2022-11-26T18:05:18.705Z,100979.06
2022-11-26T18:07:46.370Z,100982.06
2022-11-26T18:10:16.371Z,101002.03
2022-11-26T18:12:45.087Z,100963.28
2022-11-26T18:15:20.828Z,100959.47
2022-11-26T18:17:53.754Z,100979.31
2022-11-26T18:20:24.076Z,100973.09
2022-11-26T18:22:53.744Z,100983.59
2022-11-26T18:25:21.240Z,100977.41
2022-11-26T18:27:48.726Z,100961.66
2022-11-26T18:30:17.926Z,100976.78
2022-11-26T18:32:45.115Z,100989.63
2022-11-26T18:35:13.027Z,100987.38
2022-11-26T18:37:41.098Z,100986.25
2022-11-26T18:40:12.150Z,100991.28
2022-11-26T18:42:40.527Z,100986.69
2022-11-26T18:45:10.534Z,101000.13
2022-11-26T18:47:38.606Z,100997.00
2022-11-26T18:50:07.157Z,100998.22
2022-11-26T18:52:34.310Z,101002.91
2022-11-26T18:55:05.688Z,100991.53
2022-11-26T18:57:33.014Z,100978.84
2022-11-26T19:00:00.444Z,101002.06
2022-11-26T19:02:27.696Z,100994.44
2022-11-26T19:04:54.889Z,101004.28
2022-11-26T19:07:22.269Z,100993.72
2022-11-26T19:09:50.025Z,101002.78
2022-11-26T19:12:17.816Z,101007.31
2022-11-26T19:14:46.503Z,101012.75
2022-11-26T19:17:15.731Z,101004.63
2022-11-26T19:19:43.246Z,101008.47
2022-11-26T19:22:10.611Z,101001.13
2022-11-26T19:24:37.977Z,100996.59
2022-11-26T19:27:05.306Z,101003.13
2022-11-26T19:29:32.382Z,101010.16
2022-11-26T19:31:59.451Z,100989.28
2022-11-26T19:34:26.755Z,101016.34
2022-11-26T19:37:00.236Z,101018.50
2022-11-26T19:39:28.326Z,101013.72
2022-11-26T19:41:55.491Z,101008.97
2022-11-26T19:44:23.013Z,101014.25
2022-11-26T19:46:52.829Z,101023.31
2022-11-26T19:49:19.893Z,101038.16
2022-11-26T19:51:47.201Z,101035.00
2022-11-26T19:54:14.448Z,101034.59
2022-11-26T19:56:43.233Z,101027.13
2022-11-26T19:59:10.656Z,101030.75
2022-11-26T20:01:38.086Z,101019.81
2022-11-26T20:04:08.487Z,101021.94
2022-11-26T20:06:36.293Z,101026.53
2022-11-26T20:09:05.702Z,101026.53
2022-11-26T20:11:36.012Z,101032.78
2022-11-26T20:14:03.493Z,101027.09
2022-11-26T20:16:32.518Z,101027.41
2022-11-26T20:19:01.552Z,101024.06
2022-11-26T20:21:34.270Z,101021.38
2022-11-26T20:24:04.736Z,101027.34
2022-11-26T20:26:40.719Z,101026.75
2022-11-26T20:29:11.266Z,101017.81
2022-11-26T20:31:52.480Z,101032.78
2022-11-26T20:34:30.143Z,101035.28
2022-11-26T20:36:57.468Z,101030.09
2022-11-26T20:39:25.036Z,101033.03
2022-11-26T20:41:52.186Z,101020.28
2022-11-26T20:44:20.417Z,101033.38
2022-11-26T20:46:47.672Z,101030.25
2022-11-26T20:49:16.361Z,101027.75
2022-11-26T20:51:44.424Z,101031.63
2022-11-26T20:54:11.788Z,101037.81
2022-11-26T20:56:38.832Z,101040.47
2022-11-26T20:59:09.835Z,101054.06
2022-11-26T21:01:40.280Z,101045.63
2022-11-26T21:04:07.770Z,101049.13
2022-11-26T21:06:36.048Z,101039.31
2022-11-26T21:09:05.739Z,101051.56
2022-11-26T21:11:32.872Z,101051.47
2022-11-26T21:14:01.756Z,101056.75
2022-11-26T21:16:30.505Z,101051.63
2022-11-26T21:19:01.375Z,101051.06
2022-11-26T21:21:29.546Z,101045.94
2022-11-26T21:23:59.460Z,101051.81
2022-11-26T21:26:26.950Z,101050.56
2022-11-26T21:28:58.632Z,101047.19
2022-11-26T21:31:28.494Z,101047.19
2022-11-26T21:33:58.154Z,101048.53
2022-11-26T21:36:27.234Z,101011.16
2022-11-26T21:38:54.687Z,101058.50
2022-11-26T21:41:23.476Z,101051.09
2022-11-26T21:43:52.997Z,101051.09
2022-11-26T21:46:26.490Z,101048.81
2022-11-26T21:48:54.868Z,101046.03
2022-11-26T21:51:24.310Z,101044.84
2022-11-26T21:53:53.072Z,101028.34
2022-11-26T21:56:24.832Z,101044.47
2022-11-26T21:58:52.344Z,101028.72
2022-11-26T22:01:38.586Z,101006.78
2022-11-26T22:04:10.276Z,101047.34
2022-11-26T22:06:38.823Z,101040.13
2022-11-26T22:09:07.306Z,101037.63
2022-11-26T22:11:40.345Z,101042.44
2022-11-26T22:14:08.532Z,101037.94
2022-11-26T22:16:36.260Z,101033.75
2022-11-26T22:19:03.877Z,101021.84
2022-11-26T22:21:32.279Z,101051.22
2022-11-26T22:24:03.340Z,101033.88
2022-11-26T22:26:32.017Z,101026.91
2022-11-26T22:28:59.580Z,101042.69
2022-11-26T22:31:35.650Z,101031.88
2022-11-26T22:34:12.575Z,101046.63
2022-11-26T22:36:40.794Z,101002.66
2022-11-26T22:39:13.707Z,101026.88
2022-11-26T22:41:42.475Z,101031.16
2022-11-26T22:44:13.133Z,101045.41
2022-11-26T22:46:40.360Z,101022.69
2022-11-26T22:49:07.756Z,101022.63
2022-11-26T22:51:35.883Z,101030.41
2022-11-26T22:54:05.419Z,101048.91
2022-11-26T22:56:33.989Z,101026.03
2022-11-26T22:59:01.740Z,101040.03
2022-11-26T23:01:32.336Z,101036.38
2022-11-26T23:04:01.461Z,101043.91
2022-11-26T23:06:31.040Z,101046.84
2022-11-26T23:08:59.401Z,101031.75
2022-11-26T23:11:38.900Z,101040.97
2022-11-26T23:14:09.649Z,101050.69
2022-11-26T23:16:42.437Z,101057.91
2022-11-26T23:19:10.135Z,101069.53
2022-11-26T23:21:43.647Z,101061.31
2022-11-26T23:24:11.350Z,101066.84
2022-11-26T23:26:39.875Z,101064.00
2022-11-26T23:29:07.997Z,101071.72
2022-11-26T23:31:38.256Z,101074.03
2022-11-26T23:34:06.840Z,101055.25
2022-11-26T23:36:34.980Z,101077.75
2022-11-26T23:39:05.191Z,101068.84
2022-11-26T23:41:33.648Z,101062.72
2022-11-26T23:44:00.837Z,101066.91
2022-11-26T23:46:35.629Z,101068.75
2022-11-26T23:49:03.563Z,101085.19
2022-11-26T23:51:32.254Z,101069.22
2022-11-26T23:53:59.766Z,101071.00
2022-11-26T23:56:29.929Z,101074.88
2022-11-26T23:58:59.838Z,101089.28
